sensor_id;sensor_type;location;lat;lon;timestamp;pressure;altitude;pressure_sealevel;temperature;humidity
22649;BME280;11491;41.942;24.220;2022-11-15T00:00:32;90420.31;;;0.97;79.98
22649;BME280;11491;41.942;24.220;2022-11-15T00:02:59;90424.41;;;1.14;79.38
22649;BME280;11491;41.942;24.220;2022-11-15T00:05:26;90418.09;;;1.15;79.01
22649;BME280;11491;41.942;24.220;2022-11-15T00:07:53;90421.25;;;1.12;78.49
22649;BME280;11491;41.942;24.220;2022-11-15T00:10:19;90400.63;;;0.84;78.90
22649;BME280;11491;41.942;24.220;2022-11-15T00:12:46;90407.19;;;0.92;79.65
22649;BME280;11491;41.942;24.220;2022-11-15T00:15:13;90409.78;;;0.97;79.48
22649;BME280;11491;41.942;24.220;2022-11-15T00:17:41;90403.53;;;0.83;79.34
22649;BME280;11491;41.942;24.220;2022-11-15T00:20:09;90401.19;;;0.76;80.37
22649;BME280;11491;41.942;24.220;2022-11-15T00:22:37;90407.94;;;0.93;78.75
22649;BME280;11491;41.942;24.220;2022-11-15T00:25:05;90397.16;;;0.89;78.50
22649;BME280;11491;41.942;24.220;2022-11-15T00:27:32;90393.00;;;0.83;78.36
22649;BME280;11491;41.942;24.220;2022-11-15T00:29:58;90394.91;;;0.67;78.73
22649;BME280;11491;41.942;24.220;2022-11-15T00:32:25;90390.19;;;0.64;79.62
22649;BME280;11491;41.942;24.220;2022-11-15T00:34:53;90388.88;;;0.67;79.54
22649;BME280;11491;41.942;24.220;2022-11-15T00:37:20;90386.75;;;0.69;79.66
22649;BME280;11491;41.942;24.220;2022-11-15T00:39:47;90378.34;;;0.67;80.22
22649;BME280;11491;41.942;24.220;2022-11-15T00:42:13;90386.47;;;0.75;79.10
22649;BME280;11491;41.942;24.220;2022-11-15T00:44:40;90388.81;;;0.77;78.74
22649;BME280;11491;41.942;24.220;2022-11-15T00:47:07;90385.72;;;0.64;79.49
22649;BME280;11491;41.942;24.220;2022-11-15T00:49:33;90382.56;;;0.68;79.48
22649;BME280;11491;41.942;24.220;2022-11-15T00:52:02;90381.47;;;0.74;78.57
22649;BME280;11491;41.942;24.220;2022-11-15T00:54:28;90385.13;;;0.78;78.25
22649;BME280;11491;41.942;24.220;2022-11-15T00:56:55;90385.72;;;0.70;78.18
22649;BME280;11491;41.942;24.220;2022-11-15T00:59:22;90382.03;;;0.66;78.18
22649;BME280;11491;41.942;24.220;2022-11-15T01:01:49;90373.97;;;0.47;79.02
22649;BME280;11491;41.942;24.220;2022-11-15T01:04:15;90375.78;;;0.51;78.90
22649;BME280;11491;41.942;24.220;2022-11-15T01:06:42;90382.69;;;0.42;79.46
22649;BME280;11491;41.942;24.220;2022-11-15T01:09:10;90373.25;;;0.36;80.03
22649;BME280;11491;41.942;24.220;2022-11-15T01:11:37;90375.84;;;0.41;79.99
22649;BME280;11491;41.942;24.220;2022-11-15T01:14:04;90381.16;;;0.31;79.58
22649;BME280;11491;41.942;24.220;2022-11-15T01:16:30;90366.94;;;0.32;79.46
22649;BME280;11491;41.942;24.220;2022-11-15T01:18:58;90373.78;;;0.33;79.56
22649;BME280;11491;41.942;24.220;2022-11-15T01:21:25;90364.78;;;0.44;78.75
22649;BME280;11491;41.942;24.220;2022-11-15T01:23:52;90360.06;;;0.41;79.16
22649;BME280;11491;41.942;24.220;2022-11-15T01:26:21;90371.69;;;0.35;79.15
22649;BME280;11491;41.942;24.220;2022-11-15T01:28:47;90361.63;;;0.42;78.76
22649;BME280;11491;41.942;24.220;2022-11-15T01:31:15;90361.63;;;0.42;78.71
22649;BME280;11491;41.942;24.220;2022-11-15T01:33:43;90364.91;;;0.18;78.98
22649;BME280;11491;41.942;24.220;2022-11-15T01:36:12;90374.13;;;0.11;80.27
22649;BME280;11491;41.942;24.220;2022-11-15T01:38:39;90369.09;;;0.19;79.92
22649;BME280;11491;41.942;24.220;2022-11-15T01:41:06;90368.59;;;0.12;80.10
22649;BME280;11491;41.942;24.220;2022-11-15T01:43:40;90371.25;;;0.07;80.37
22649;BME280;11491;41.942;24.220;2022-11-15T01:46:19;90365.97;;;0.17;80.97
22649;BME280;11491;41.942;24.220;2022-11-15T01:48:50;90366.97;;;0.21;80.44
22649;BME280;11491;41.942;24.220;2022-11-15T01:51:20;90359.63;;;0.24;80.55
22649;BME280;11491;41.942;24.220;2022-11-15T01:53:52;90362.28;;;0.18;79.66
22649;BME280;11491;41.942;24.220;2022-11-15T01:56:23;90359.06;;;0.27;79.22
22649;BME280;11491;41.942;24.220;2022-11-15T01:58:53;90357.19;;;0.37;78.02
22649;BME280;11491;41.942;24.220;2022-11-15T02:01:24;90356.91;;;0.39;77.38
22649;BME280;11491;41.942;24.220;2022-11-15T02:03:55;90360.38;;;0.29;78.12
22649;BME280;11491;41.942;24.220;2022-11-15T02:06:23;90355.72;;;0.11;78.51
22649;BME280;11491;41.942;24.220;2022-11-15T02:08:50;90352.03;;;0.12;78.70
22649;BME280;11491;41.942;24.220;2022-11-15T02:11:18;90353.34;;;0.09;79.74
22649;BME280;11491;41.942;24.220;2022-11-15T02:13:45;90350.19;;;0.17;80.27
22649;BME280;11491;41.942;24.220;2022-11-15T02:16:21;90346.50;;;0.18;80.27
22649;BME280;11491;41.942;24.220;2022-11-15T02:18:57;90338.13;;;0.06;79.14
22649;BME280;11491;41.942;24.220;2022-11-15T02:21:31;90345.50;;;0.04;79.88
22649;BME280;11491;41.942;24.220;2022-11-15T02:24:32;90347.09;;;0.05;80.12
22649;BME280;11491;41.942;24.220;2022-11-15T02:30:20;90340.19;;;0.14;78.78
22649;BME280;11491;41.942;24.220;2022-11-15T02:32:50;90342.81;;;0.14;78.70
22649;BME280;11491;41.942;24.220;2022-11-15T02:35:27;90335.97;;;0.18;78.62
22649;BME280;11491;41.942;24.220;2022-11-15T02:37:57;90335.94;;;0.24;77.64
22649;BME280;11491;41.942;24.220;2022-11-15T02:40:34;90340.19;;;0.14;78.42
22649;BME280;11491;41.942;24.220;2022-11-15T02:43:06;90337.09;;;0.02;78.55
22649;BME280;11491;41.942;24.220;2022-11-15T02:45:59;90339.72;;;0.02;77.94
22649;BME280;11491;41.942;24.220;2022-11-15T02:48:29;90343.16;;;-0.08;77.99
22649;BME280;11491;41.942;24.220;2022-11-15T02:50:58;90338.72;;;-0.12;78.50
22649;BME280;11491;41.942;24.220;2022-11-15T02:53:25;90333.69;;;-0.04;77.75
22649;BME280;11491;41.942;24.220;2022-11-15T02:55:53;90336.09;;;-0.12;78.25
22649;BME280;11491;41.942;24.220;2022-11-15T02:58:42;90343.50;;;-0.25;79.77
22649;BME280;11491;41.942;24.220;2022-11-15T03:01:23;90330.09;;;-0.28;79.52
22649;BME280;11491;41.942;24.220;2022-11-15T03:03:59;90335.63;;;-0.30;79.69
22649;BME280;11491;41.942;24.220;2022-11-15T03:06:35;90341.91;;;-0.26;78.96
22649;BME280;11491;41.942;24.220;2022-11-15T03:09:10;90338.72;;;-0.17;78.97
22649;BME280;11491;41.942;24.220;2022-11-15T03:11:46;90330.84;;;-0.12;78.27
22649;BME280;11491;41.942;24.220;2022-11-15T03:14:25;90347.94;;;-0.20;78.83
22649;BME280;11491;41.942;24.220;2022-11-15T03:17:00;90340.38;;;-0.37;79.26
22649;BME280;11491;41.942;24.220;2022-11-15T03:19:32;90338.25;;;-0.35;80.07
22649;BME280;11491;41.942;24.220;2022-11-15T03:22:03;90332.50;;;-0.42;80.55
22649;BME280;11491;41.942;24.220;2022-11-15T03:24:34;90328.28;;;-0.43;81.02
22649;BME280;11491;41.942;24.220;2022-11-15T03:27:03;90333.50;;;-0.28;80.25
22649;BME280;11491;41.942;24.220;2022-11-15T03:29:33;90328.25;;;-0.28;78.53
22649;BME280;11491;41.942;24.220;2022-11-15T03:32:07;90322.47;;;-0.25;78.80
22649;BME280;11491;41.942;24.220;2022-11-15T03:34:40;90322.53;;;-0.50;79.77
22649;BME280;11491;41.942;24.220;2022-11-15T03:37:09;90322.56;;;-0.66;80.26
22649;BME280;11491;41.942;24.220;2022-11-15T03:39:38;90304.69;;;-0.53;79.08
22649;BME280;11491;41.942;24.220;2022-11-15T03:42:14;90316.75;;;-0.47;78.86
22649;BME280;11491;41.942;24.220;2022-11-15T03:44:51;90315.16;;;-0.43;79.72
22649;BME280;11491;41.942;24.220;2022-11-15T03:47:26;90298.38;;;-0.57;79.83
22649;BME280;11491;41.942;24.220;2022-11-15T03:49:58;90311.50;;;-0.42;80.12
22649;BME280;11491;41.942;24.220;2022-11-15T03:52:31;90304.09;;;-0.40;79.99
22649;BME280;11491;41.942;24.220;2022-11-15T03:55:00;90311.50;;;-0.52;80.10
22649;BME280;11491;41.942;24.220;2022-11-15T03:57:27;90303.06;;;-0.39;78.77
22649;BME280;11491;41.942;24.220;2022-11-15T03:59:54;90303.06;;;-0.34;77.94
22649;BME280;11491;41.942;24.220;2022-11-15T04:02:22;90303.09;;;-0.44;78.25
22649;BME280;11491;41.942;24.220;2022-11-15T04:04:49;90297.34;;;-0.56;79.34
22649;BME280;11491;41.942;24.220;2022-11-15T04:07:16;90297.38;;;-0.72;80.19
22649;BME280;11491;41.942;24.220;2022-11-15T04:09:42;90298.91;;;-0.55;79.39
22649;BME280;11491;41.942;24.220;2022-11-15T04:12:23;90297.84;;;-0.54;79.07
22649;BME280;11491;41.942;24.220;2022-11-15T04:14:56;90294.72;;;-0.56;79.32
22649;BME280;11491;41.942;24.220;2022-11-15T04:17:35;90295.25;;;-0.64;79.44
22649;BME280;11491;41.942;24.220;2022-11-15T04:20:03;90289.72;;;-0.63;80.62
22649;BME280;11491;41.942;24.220;2022-11-15T04:22:47;90293.69;;;-0.71;79.64
22649;BME280;11491;41.942;24.220;2022-11-15T04:25:31;90291.03;;;-0.66;79.00
22649;BME280;11491;41.942;24.220;2022-11-15T04:27:58;90287.88;;;-0.68;78.99
22649;BME280;11491;41.942;24.220;2022-11-15T04:30:24;90280.00;;;-0.62;79.92
22649;BME280;11491;41.942;24.220;2022-11-15T04:32:51;90291.81;;;-0.65;79.02
22649;BME280;11491;41.942;24.220;2022-11-15T04:35:18;90287.13;;;-0.68;79.81
22649;BME280;11491;41.942;24.220;2022-11-15T04:37:45;90297.63;;;-0.68;79.98
22649;BME280;11491;41.942;24.220;2022-11-15T04:40:12;90297.88;;;-0.75;80.55
22649;BME280;11491;41.942;24.220;2022-11-15T04:42:40;90292.13;;;-0.77;80.91
22649;BME280;11491;41.942;24.220;2022-11-15T04:45:08;90298.97;;;-0.81;80.90
22649;BME280;11491;41.942;24.220;2022-11-15T04:47:35;90285.00;;;-0.66;79.15
22649;BME280;11491;41.942;24.220;2022-11-15T04:50:04;90288.41;;;-0.60;79.31
22649;BME280;11491;41.942;24.220;2022-11-15T04:52:30;90278.97;;;-0.67;79.03
22649;BME280;11491;41.942;24.220;2022-11-15T04:54:57;90287.13;;;-0.68;78.94
22649;BME280;11491;41.942;24.220;2022-11-15T04:57:24;90260.13;;;-0.89;78.73
22649;BME280;11491;41.942;24.220;2022-11-15T04:59:51;90279.00;;;-0.87;79.34
22649;BME280;11491;41.942;24.220;2022-11-15T05:02:17;90282.72;;;-1.09;80.32
22649;BME280;11491;41.942;24.220;2022-11-15T05:04:44;90282.72;;;-1.09;81.15
22649;BME280;11491;41.942;24.220;2022-11-15T05:07:11;90282.19;;;-1.05;81.72
22649;BME280;11491;41.942;24.220;2022-11-15T05:09:38;90282.97;;;-1.05;81.81
22649;BME280;11491;41.942;24.220;2022-11-15T05:12:05;90286.38;;;-0.94;79.76
22649;BME280;11491;41.942;24.220;2022-11-15T05:14:31;90276.91;;;-0.85;80.06
22649;BME280;11491;41.942;24.220;2022-11-15T05:16:58;90282.16;;;-0.95;80.20
22649;BME280;11491;41.942;24.220;2022-11-15T05:19:25;90272.19;;;-0.93;80.87
22649;BME280;11491;41.942;24.220;2022-11-15T05:21:52;90256.44;;;-0.93;79.95
22649;BME280;11491;41.942;24.220;2022-11-15T05:24:20;90275.88;;;-0.84;80.35
22649;BME280;11491;41.942;24.220;2022-11-15T05:26:46;90276.38;;;-0.82;80.51
22649;BME280;11491;41.942;24.220;2022-11-15T05:29:13;90272.69;;;-0.71;79.67
22649;BME280;11491;41.942;24.220;2022-11-15T05:31:40;90273.22;;;-0.74;79.75
22649;BME280;11491;41.942;24.220;2022-11-15T05:34:08;90276.38;;;-0.72;79.65
22649;BME280;11491;41.942;24.220;2022-11-15T05:36:36;90275.88;;;-0.84;80.22
22649;BME280;11491;41.942;24.220;2022-11-15T05:39:05;90283.19;;;-0.81;80.76
22649;BME280;11491;41.942;24.220;2022-11-15T05:41:37;90273.44;;;-0.70;79.75
22649;BME280;11491;41.942;24.220;2022-11-15T05:44:07;90278.19;;;-0.67;79.31
22649;BME280;11491;41.942;24.220;2022-11-15T05:46:37;90284.75;;;-0.59;79.47
22649;BME280;11491;41.942;24.220;2022-11-15T05:49:06;90286.31;;;-0.58;80.07
22649;BME280;11491;41.942;24.220;2022-11-15T05:51:34;90288.88;;;-0.43;78.84
22649;BME280;11491;41.942;24.220;2022-11-15T05:54:01;90289.41;;;-0.46;78.62
22649;BME280;11491;41.942;24.220;2022-11-15T05:56:31;90293.13;;;-0.57;79.05
22649;BME280;11491;41.942;24.220;2022-11-15T05:59:00;90286.81;;;-0.51;79.93
22649;BME280;11491;41.942;24.220;2022-11-15T06:01:27;90292.59;;;-0.54;80.45
22649;BME280;11491;41.942;24.220;2022-11-15T06:03:54;90290.47;;;-0.42;79.57
22649;BME280;11491;41.942;24.220;2022-11-15T06:06:21;90291.75;;;-0.34;79.28
22649;BME280;11491;41.942;24.220;2022-11-15T06:08:48;90295.47;;;-0.46;79.99
22649;BME280;11491;41.942;24.220;2022-11-15T06:11:14;90287.81;;;-0.37;80.65
22649;BME280;11491;41.942;24.220;2022-11-15T06:13:41;90288.31;;;-0.30;80.07
22649;BME280;11491;41.942;24.220;2022-11-15T06:16:09;90286.16;;;-0.17;79.37
22649;BME280;11491;41.942;24.220;2022-11-15T06:18:36;90293.53;;;-0.19;79.48
22649;BME280;11491;41.942;24.220;2022-11-15T06:21:04;90288.53;;;-0.16;80.52
22649;BME280;11491;41.942;24.220;2022-11-15T06:23:32;90292.41;;;-0.03;80.52
22649;BME280;11491;41.942;24.220;2022-11-15T06:25:59;90280.28;;;0.06;81.06
22649;BME280;11491;41.942;24.220;2022-11-15T06:28:28;90288.38;;;0.15;80.83
22649;BME280;11491;41.942;24.220;2022-11-15T06:30:55;90286.53;;;0.20;80.52
22649;BME280;11491;41.942;24.220;2022-11-15T06:33:23;90289.03;;;0.41;80.60
22649;BME280;11491;41.942;24.220;2022-11-15T06:35:50;90286.75;;;0.69;80.38
22649;BME280;11491;41.942;24.220;2022-11-15T06:38:17;90293.44;;;0.90;79.76
22649;BME280;11491;41.942;24.220;2022-11-15T06:40:43;90293.25;;;1.11;78.97
22649;BME280;11491;41.942;24.220;2022-11-15T06:43:10;90292.56;;;1.29;78.70
22649;BME280;11491;41.942;24.220;2022-11-15T06:45:37;90286.03;;;1.50;78.87
22649;BME280;11491;41.942;24.220;2022-11-15T06:48:04;90281.56;;;1.75;78.66
22649;BME280;11491;41.942;24.220;2022-11-15T06:50:32;90277.72;;;1.91;77.85
22649;BME280;11491;41.942;24.220;2022-11-15T06:53:03;90281.06;;;2.16;77.06
22649;BME280;11491;41.942;24.220;2022-11-15T06:55:30;90271.41;;;2.30;76.82
22649;BME280;11491;41.942;24.220;2022-11-15T06:57:57;90273.13;;;2.59;76.73
22649;BME280;11491;41.942;24.220;2022-11-15T07:00:23;90276.56;;;2.78;76.21
22649;BME280;11491;41.942;24.220;2022-11-15T07:02:50;90275.47;;;2.98;75.28
22649;BME280;11491;41.942;24.220;2022-11-15T07:05:17;90273.34;;;3.14;74.24
22649;BME280;11491;41.942;24.220;2022-11-15T07:07:50;90271.28;;;3.44;75.00
22649;BME280;11491;41.942;24.220;2022-11-15T07:10:17;90262.31;;;3.73;74.37
22649;BME280;11491;41.942;24.220;2022-11-15T07:12:46;90262.88;;;3.97;74.72
22649;BME280;11491;41.942;24.220;2022-11-15T07:15:14;90264.44;;;4.26;74.07
22649;BME280;11491;41.942;24.220;2022-11-15T07:17:40;90262.72;;;4.58;73.61
22649;BME280;11491;41.942;24.220;2022-11-15T07:20:08;90260.94;;;4.89;73.21
22649;BME280;11491;41.942;24.220;2022-11-15T07:22:35;90264.94;;;5.23;72.13
22649;BME280;11491;41.942;24.220;2022-11-15T07:25:03;90240.13;;;5.42;71.10
22649;BME280;11491;41.942;24.220;2022-11-15T07:27:30;90252.97;;;5.88;70.13
22649;BME280;11491;41.942;24.220;2022-11-15T07:29:57;90250.47;;;6.23;69.56
22649;BME280;11491;41.942;24.220;2022-11-15T07:32:24;90244.59;;;6.52;67.72
22649;BME280;11491;41.942;24.220;2022-11-15T07:34:51;90249.34;;;6.90;66.77
22649;BME280;11491;41.942;24.220;2022-11-15T07:37:17;90241.81;;;7.27;65.97
22649;BME280;11491;41.942;24.220;2022-11-15T07:39:44;90245.88;;;7.50;65.93
22649;BME280;11491;41.942;24.220;2022-11-15T07:42:12;90241.53;;;7.93;64.51
22649;BME280;11491;41.942;24.220;2022-11-15T07:44:56;90240.88;;;8.34;63.69
22649;BME280;11491;41.942;24.220;2022-11-15T07:47:23;90235.66;;;8.76;62.70
22649;BME280;11491;41.942;24.220;2022-11-15T07:49:50;90225.72;;;9.06;62.53
22649;BME280;11491;41.942;24.220;2022-11-15T07:52:17;90236.28;;;9.57;60.50
22649;BME280;11491;41.942;24.220;2022-11-15T07:54:44;90238.72;;;10.08;59.32
22649;BME280;11491;41.942;24.220;2022-11-15T07:57:10;90225.88;;;10.59;57.27
22649;BME280;11491;41.942;24.220;2022-11-15T07:59:38;90221.94;;;11.06;57.23
22649;BME280;11491;41.942;24.220;2022-11-15T08:02:05;90221.75;;;11.55;55.86
22649;BME280;11491;41.942;24.220;2022-11-15T08:04:32;90212.41;;;12.05;53.77
22649;BME280;11491;41.942;24.220;2022-11-15T08:06:59;90214.47;;;12.59;52.21
22649;BME280;11491;41.942;24.220;2022-11-15T08:09:25;90211.94;;;13.18;50.49
22649;BME280;11491;41.942;24.220;2022-11-15T08:11:52;90206.22;;;13.74;48.82
22649;BME280;11491;41.942;24.220;2022-11-15T08:14:19;90203.41;;;14.32;47.11
22649;BME280;11491;41.942;24.220;2022-11-15T08:16:48;90196.69;;;14.92;46.15
22649;BME280;11491;41.942;24.220;2022-11-15T08:19:15;90195.09;;;15.44;44.43
22649;BME280;11491;41.942;24.220;2022-11-15T08:21:42;90191.47;;;15.93;43.45
22649;BME280;11491;41.942;24.220;2022-11-15T08:24:12;90181.84;;;16.33;43.46
22649;BME280;11491;41.942;24.220;2022-11-15T08:26:38;90195.00;;;16.79;42.70
22649;BME280;11491;41.942;24.220;2022-11-15T08:29:06;90189.91;;;17.22;41.15
22649;BME280;11491;41.942;24.220;2022-11-15T08:31:34;90202.03;;;16.91;41.89
22649;BME280;11491;41.942;24.220;2022-11-15T08:34:03;90186.03;;;17.19;42.04
22649;BME280;11491;41.942;24.220;2022-11-15T08:36:29;90197.38;;;17.47;40.67
22649;BME280;11491;41.942;24.220;2022-11-15T08:38:56;90199.41;;;17.71;38.90
22649;BME280;11491;41.942;24.220;2022-11-15T08:41:25;90195.00;;;18.11;38.26
22649;BME280;11491;41.942;24.220;2022-11-15T08:43:53;90200.41;;;18.18;38.12
22649;BME280;11491;41.942;24.220;2022-11-15T08:46:19;90202.38;;;18.28;37.59
22649;BME280;11491;41.942;24.220;2022-11-15T08:48:46;90198.13;;;18.31;37.43
22649;BME280;11491;41.942;24.220;2022-11-15T08:51:14;90195.91;;;18.80;36.94
22649;BME280;11491;41.942;24.220;2022-11-15T08:53:41;90192.03;;;19.06;36.90
22649;BME280;11491;41.942;24.220;2022-11-15T08:56:08;90193.16;;;19.30;36.59
22649;BME280;11491;41.942;24.220;2022-11-15T08:58:36;90180.34;;;19.55;36.44
22649;BME280;11491;41.942;24.220;2022-11-15T09:01:03;90182.63;;;19.78;36.02
22649;BME280;11491;41.942;24.220;2022-11-15T09:03:30;90175.44;;;20.24;35.83
22649;BME280;11491;41.942;24.220;2022-11-15T09:05:59;90170.72;;;20.42;35.75
22649;BME280;11491;41.942;24.220;2022-11-15T09:08:29;90164.00;;;20.65;35.50
22649;BME280;11491;41.942;24.220;2022-11-15T09:10:57;90161.91;;;20.87;35.00
22649;BME280;11491;41.942;24.220;2022-11-15T09:13:23;90165.56;;;20.62;35.77
22649;BME280;11491;41.942;24.220;2022-11-15T09:15:50;90143.91;;;21.04;35.42
22649;BME280;11491;41.942;24.220;2022-11-15T09:18:17;90142.72;;;21.50;34.77
22649;BME280;11491;41.942;24.220;2022-11-15T09:20:44;90144.16;;;21.62;34.72
22649;BME280;11491;41.942;24.220;2022-11-15T09:23:11;90143.81;;;21.94;34.62
22649;BME280;11491;41.942;24.220;2022-11-15T09:25:39;90143.59;;;22.12;33.71
22649;BME280;11491;41.942;24.220;2022-11-15T09:28:06;90138.44;;;22.18;34.36
22649;BME280;11491;41.942;24.220;2022-11-15T09:30:33;90138.44;;;22.18;33.71
22649;BME280;11491;41.942;24.220;2022-11-15T09:33:06;90131.66;;;22.33;33.87
22649;BME280;11491;41.942;24.220;2022-11-15T09:35:33;90129.13;;;22.49;33.39
22649;BME280;11491;41.942;24.220;2022-11-15T09:38:00;90129.47;;;22.51;32.70
22649;BME280;11491;41.942;24.220;2022-11-15T09:40:26;90123.13;;;22.00;34.47
22649;BME280;11491;41.942;24.220;2022-11-15T09:43:09;90115.03;;;22.54;33.55
22649;BME280;11491;41.942;24.220;2022-11-15T09:45:54;90125.78;;;23.16;33.03
22649;BME280;11491;41.942;24.220;2022-11-15T09:48:39;90123.13;;;22.85;33.13
22649;BME280;11491;41.942;24.220;2022-11-15T09:51:14;90117.59;;;22.38;33.63
22649;BME280;11491;41.942;24.220;2022-11-15T09:53:52;90113.88;;;22.79;32.80
22649;BME280;11491;41.942;24.220;2022-11-15T09:56:26;90106.34;;;23.14;32.95
22649;BME280;11491;41.942;24.220;2022-11-15T09:59:02;90104.13;;;23.72;31.21
22649;BME280;11491;41.942;24.220;2022-11-15T10:01:38;90101.25;;;24.19;31.46
22649;BME280;11491;41.942;24.220;2022-11-15T10:04:06;90100.16;;;23.97;30.99
22649;BME280;11491;41.942;24.220;2022-11-15T10:06:36;90099.53;;;23.89;31.41
22649;BME280;11491;41.942;24.220;2022-11-15T10:09:11;90097.63;;;24.06;30.98
22649;BME280;11491;41.942;24.220;2022-11-15T10:11:39;90089.31;;;24.13;30.33
22649;BME280;11491;41.942;24.220;2022-11-15T10:14:11;90093.66;;;24.47;30.57
22649;BME280;11491;41.942;24.220;2022-11-15T10:17:14;90087.03;;;24.64;30.30
22649;BME280;11491;41.942;24.220;2022-11-15T10:19:54;90074.47;;;23.94;31.03
22649;BME280;11491;41.942;24.220;2022-11-15T10:22:28;90070.91;;;23.77;31.64
22649;BME280;11491;41.942;24.220;2022-11-15T10:25:13;90076.66;;;24.03;30.92
22649;BME280;11491;41.942;24.220;2022-11-15T10:27:43;90074.09;;;23.72;31.56
22649;BME280;11491;41.942;24.220;2022-11-15T10:30:14;90067.50;;;23.50;31.51
22649;BME280;11491;41.942;24.220;2022-11-15T10:32:43;90061.03;;;23.63;32.26
22649;BME280;11491;41.942;24.220;2022-11-15T10:35:22;90058.03;;;23.98;31.01
22649;BME280;11491;41.942;24.220;2022-11-15T10:37:49;90057.56;;;24.19;31.14
22649;BME280;11491;41.942;24.220;2022-11-15T10:40:19;90044.66;;;24.03;31.24
22649;BME280;11491;41.942;24.220;2022-11-15T10:42:46;90046.25;;;24.01;30.56
22649;BME280;11491;41.942;24.220;2022-11-15T10:45:27;90041.50;;;24.05;30.67
22649;BME280;11491;41.942;24.220;2022-11-15T10:48:21;90029.19;;;23.97;31.18
22649;BME280;11491;41.942;24.220;2022-11-15T10:50:49;90026.19;;;23.91;31.48
22649;BME280;11491;41.942;24.220;2022-11-15T10:53:22;90020.59;;;23.98;31.20
22649;BME280;11491;41.942;24.220;2022-11-15T10:55:51;90023.66;;;24.00;31.08
22649;BME280;11491;41.942;24.220;2022-11-15T10:58:31;90014.03;;;24.12;30.89
22649;BME280;11491;41.942;24.220;2022-11-15T11:01:14;90016.94;;;24.05;31.01
22649;BME280;11491;41.942;24.220;2022-11-15T11:03:43;89996.97;;;24.08;31.43
22649;BME280;11491;41.942;24.220;2022-11-15T11:06:12;90015.88;;;23.99;30.83
22649;BME280;11491;41.942;24.220;2022-11-15T11:08:40;90014.44;;;23.54;31.43
22649;BME280;11491;41.942;24.220;2022-11-15T11:11:07;90006.59;;;23.36;31.56
22649;BME280;11491;41.942;24.220;2022-11-15T11:13:36;90002.75;;;23.34;31.85
22649;BME280;11491;41.942;24.220;2022-11-15T11:16:21;89997.28;;;23.14;32.88
22649;BME280;11491;41.942;24.220;2022-11-15T11:18:56;89993.41;;;22.68;33.78
22649;BME280;11491;41.942;24.220;2022-11-15T11:21:38;89999.91;;;22.50;33.88
22649;BME280;11491;41.942;24.220;2022-11-15T11:24:13;89996.13;;;22.44;34.09
22649;BME280;11491;41.942;24.220;2022-11-15T11:26:48;89995.50;;;22.33;33.57
22649;BME280;11491;41.942;24.220;2022-11-15T11:29:29;89980.56;;;22.18;33.95
22649;BME280;11491;41.942;24.220;2022-11-15T11:32:08;89993.38;;;22.21;33.87
22649;BME280;11491;41.942;24.220;2022-11-15T11:34:46;89989.13;;;22.43;33.28
22649;BME280;11491;41.942;24.220;2022-11-15T11:37:21;89985.22;;;22.44;32.75
22649;BME280;11491;41.942;24.220;2022-11-15T11:40:01;89979.84;;;22.13;34.40
22649;BME280;11491;41.942;24.220;2022-11-15T11:42:40;89975.56;;;21.58;34.64
22649;BME280;11491;41.942;24.220;2022-11-15T11:45:15;89974.81;;;21.23;35.11
22649;BME280;11491;41.942;24.220;2022-11-15T11:47:51;89965.28;;;21.08;36.64
22649;BME280;11491;41.942;24.220;2022-11-15T11:50:26;89968.53;;;20.96;36.21
22649;BME280;11491;41.942;24.220;2022-11-15T11:52:57;89966.72;;;21.16;35.46
22649;BME280;11491;41.942;24.220;2022-11-15T11:55:27;89952.25;;;21.26;34.95
22649;BME280;11491;41.942;24.220;2022-11-15T11:58:06;89964.78;;;21.51;34.16
22649;BME280;11491;41.942;24.220;2022-11-15T12:00:41;89966.94;;;21.63;34.91
22649;BME280;11491;41.942;24.220;2022-11-15T12:03:16;89963.06;;;21.64;34.31
22649;BME280;11491;41.942;24.220;2022-11-15T12:05:48;89961.97;;;21.85;34.40
22649;BME280;11491;41.942;24.220;2022-11-15T12:08:35;89954.75;;;22.02;34.52
22649;BME280;11491;41.942;24.220;2022-11-15T12:11:09;89950.03;;;22.06;33.73
22649;BME280;11491;41.942;24.220;2022-11-15T12:13:38;89940.78;;;22.00;34.83
22649;BME280;11491;41.942;24.220;2022-11-15T12:16:10;89938.47;;;21.99;34.18
22649;BME280;11491;41.942;24.220;2022-11-15T12:18:44;89934.00;;;21.85;34.91
22649;BME280;11491;41.942;24.220;2022-11-15T12:21:16;89937.22;;;21.76;35.81
22649;BME280;11491;41.942;24.220;2022-11-15T12:23:49;89942.84;;;21.65;36.12
22649;BME280;11491;41.942;24.220;2022-11-15T12:26:21;89934.25;;;21.40;36.54
22649;BME280;11491;41.942;24.220;2022-11-15T12:28:52;89933.22;;;21.26;37.16
22649;BME280;11491;41.942;24.220;2022-11-15T12:31:35;89932.50;;;21.22;37.02
22649;BME280;11491;41.942;24.220;2022-11-15T12:34:15;89931.94;;;21.04;37.30
22649;BME280;11491;41.942;24.220;2022-11-15T12:36:43;89921.97;;;20.94;36.74
22649;BME280;11491;41.942;24.220;2022-11-15T12:39:11;89921.41;;;20.75;37.86
22649;BME280;11491;41.942;24.220;2022-11-15T12:41:39;89923.09;;;20.62;38.00
22649;BME280;11491;41.942;24.220;2022-11-15T12:44:11;89924.81;;;20.41;38.75
22649;BME280;11491;41.942;24.220;2022-11-15T12:47:02;89915.72;;;20.21;38.55
22649;BME280;11491;41.942;24.220;2022-11-15T12:49:48;89905.06;;;19.96;38.96
22649;BME280;11491;41.942;24.220;2022-11-15T12:52:16;89914.59;;;19.63;39.96
22649;BME280;11491;41.942;24.220;2022-11-15T12:55:31;89903.91;;;19.41;39.79
22649;BME280;11491;41.942;24.220;2022-11-15T12:58:26;89907.13;;;19.14;40.79
22649;BME280;11491;41.942;24.220;2022-11-15T13:00:53;89909.50;;;19.05;41.53
22649;BME280;11491;41.942;24.220;2022-11-15T13:03:28;89898.41;;;18.82;41.29
22649;BME280;11491;41.942;24.220;2022-11-15T13:06:39;89910.03;;;18.79;41.83
22649;BME280;11491;41.942;24.220;2022-11-15T13:12:08;89895.72;;;18.60;42.33
22649;BME280;11491;41.942;24.220;2022-11-15T13:14:54;89896.53;;;18.61;41.69
22649;BME280;11491;41.942;24.220;2022-11-15T13:17:27;89876.50;;;18.29;42.50